createdAt,value
2018-02-11T01:38:57.557Z,97.92
2018-02-11T01:38:58.129Z,97.82
2018-02-11T01:38:58.725Z,97.73
2018-02-11T01:38:59.327Z,97.82
2018-02-11T01:38:59.928Z,97.73
2018-02-11T01:39:00.525Z,97.82
2018-02-11T01:39:01.124Z,97.82
2018-02-11T01:39:01.726Z,97.73
2018-02-11T01:39:55.254Z,98.20
2018-02-11T01:39:55.814Z,98.30
2018-02-11T01:39:56.384Z,98.11
2018-02-11T01:39:57.000Z,98.39
2018-02-11T01:39:57.627Z,98.39
2018-02-11T01:39:58.178Z,98.01
2018-02-11T01:39:58.777Z,98.11
2018-02-11T01:39:59.376Z,98.20
2018-02-11T01:40:52.862Z,98.30
2018-02-11T01:40:53.431Z,98.30
2018-02-11T01:40:54.032Z,98.20
2018-02-11T01:40:54.631Z,98.20
2018-02-11T01:40:55.234Z,98.30
2018-02-11T01:40:55.831Z,98.20
2018-02-11T01:40:56.430Z,98.20
2018-02-11T01:40:57.076Z,98.20
2018-02-11T01:41:50.517Z,99.05
2018-02-11T01:41:51.084Z,99.05
2018-02-11T01:41:51.684Z,98.96
2018-02-11T01:41:52.282Z,98.96
2018-02-11T01:41:52.886Z,99.05
2018-02-11T01:41:53.483Z,98.96
2018-02-11T01:41:54.082Z,98.77
2018-02-11T01:41:54.683Z,98.86
2018-02-11T01:42:48.166Z,99.33
2018-02-11T01:42:48.737Z,99.43
2018-02-11T01:42:49.337Z,99.15
2018-02-11T01:42:49.936Z,99.52
2018-02-11T01:42:50.536Z,99.52
2018-02-11T01:42:51.135Z,99.33
2018-02-11T01:42:51.735Z,99.33
2018-02-11T01:42:52.335Z,99.52
2018-02-11T01:43:45.819Z,99.99
2018-02-11T01:43:46.388Z,99.99
2018-02-11T01:43:46.987Z,99.62
2018-02-11T01:43:47.588Z,99.99
2018-02-11T01:43:48.188Z,99.99
2018-02-11T01:43:48.787Z,99.99
2018-02-11T01:43:49.388Z,99.99
2018-02-11T01:43:49.988Z,99.99
2018-02-11T01:44:44.494Z,99.99
2018-02-11T01:44:45.063Z,99.99
2018-02-11T01:44:45.663Z,99.99
2018-02-11T01:44:46.264Z,99.99
2018-02-11T01:44:46.865Z,99.99
2018-02-11T01:44:47.463Z,99.99
2018-02-11T01:44:48.062Z,99.99
2018-02-11T01:44:48.662Z,99.99
2018-02-11T01:45:42.243Z,99.99
2018-02-11T01:45:42.741Z,99.99
2018-02-11T01:45:43.343Z,99.99
2018-02-11T01:45:43.940Z,99.99
2018-02-11T01:45:44.539Z,99.99
2018-02-11T01:45:45.141Z,99.99
2018-02-11T01:45:45.743Z,99.99
2018-02-11T01:45:46.340Z,99.99
2018-02-11T01:46:40.823Z,99.99
2018-02-11T01:46:41.391Z,99.99
2018-02-11T01:46:41.992Z,99.99
2018-02-11T01:46:42.590Z,99.99
2018-02-11T01:46:43.190Z,99.99
2018-02-11T01:46:43.788Z,99.99
2018-02-11T01:46:44.389Z,99.99
2018-02-11T01:46:44.989Z,99.99
2018-02-11T01:47:39.499Z,99.99
2018-02-11T01:47:40.073Z,99.99
2018-02-11T01:47:40.667Z,99.99
2018-02-11T01:47:41.266Z,99.99
2018-02-11T01:47:41.871Z,99.99
2018-02-11T01:47:42.467Z,99.99
2018-02-11T01:47:43.067Z,99.99
2018-02-11T01:47:43.667Z,99.99
2018-02-11T01:48:38.174Z,99.99
2018-02-11T01:48:38.744Z,99.99
2018-02-11T01:48:39.343Z,99.99
2018-02-11T01:48:39.942Z,99.99
2018-02-11T01:48:40.544Z,99.99
2018-02-11T01:48:41.142Z,99.99
2018-02-11T01:48:41.742Z,99.99
2018-02-11T01:48:42.342Z,99.99
2018-02-11T01:49:35.826Z,99.99
2018-02-11T01:49:36.396Z,99.99
2018-02-11T01:49:36.995Z,99.99
2018-02-11T01:49:37.595Z,99.99
2018-02-11T01:49:38.194Z,99.99
2018-02-11T01:49:38.810Z,99.99
2018-02-11T01:49:39.393Z,99.99
2018-02-11T01:49:39.993Z,99.99
2018-02-11T01:50:33.478Z,99.99
2018-02-11T01:50:34.047Z,99.99
2018-02-11T01:50:34.648Z,99.99
2018-02-11T01:50:35.248Z,99.99
2018-02-11T01:50:35.849Z,99.99
2018-02-11T01:50:36.447Z,99.99
2018-02-11T01:50:37.048Z,99.99
2018-02-11T01:50:37.648Z,99.99
2018-02-11T01:51:32.154Z,99.99
2018-02-11T01:51:32.727Z,99.99
2018-02-11T01:51:33.323Z,99.99
2018-02-11T01:51:33.922Z,99.99
2018-02-11T01:51:34.524Z,99.99
2018-02-11T01:51:35.123Z,99.99
2018-02-11T01:51:35.753Z,99.99
2018-02-11T01:51:36.322Z,99.99
2018-02-11T01:52:30.827Z,99.99
2018-02-11T01:52:31.400Z,99.99
2018-02-11T01:52:31.998Z,99.99
2018-02-11T01:52:32.597Z,99.99
2018-02-11T01:52:33.200Z,99.99
2018-02-11T01:52:33.799Z,99.99
2018-02-11T01:52:34.397Z,99.99
2018-02-11T01:52:34.999Z,99.99
2018-02-11T01:53:28.481Z,99.99
2018-02-11T01:53:29.050Z,99.99
2018-02-11T01:53:29.650Z,99.99
2018-02-11T01:53:30.254Z,99.99
2018-02-11T01:53:30.848Z,99.99
2018-02-11T01:53:31.450Z,99.99
2018-02-11T01:53:32.051Z,99.99
2018-02-11T01:53:32.649Z,99.99
2018-02-11T01:54:26.134Z,99.99
2018-02-11T01:54:26.703Z,99.99
2018-02-11T01:54:27.304Z,99.99
2018-02-11T01:54:27.903Z,99.99
2018-02-11T01:54:28.502Z,99.99
2018-02-11T01:54:29.102Z,99.99
2018-02-11T01:54:29.702Z,99.99
2018-02-11T01:54:30.302Z,99.99
2018-02-11T01:55:24.808Z,99.99
2018-02-11T01:55:25.378Z,99.99
2018-02-11T01:55:25.977Z,99.99
2018-02-11T01:55:26.583Z,99.99
2018-02-11T01:55:27.177Z,99.99
2018-02-11T01:55:27.776Z,99.99
2018-02-11T01:55:28.376Z,99.99
2018-02-11T01:55:28.976Z,99.99
2018-02-11T01:56:22.460Z,99.99
2018-02-11T01:56:23.030Z,99.99
2018-02-11T01:56:23.630Z,99.99
2018-02-11T01:56:24.231Z,99.99
2018-02-11T01:56:24.832Z,99.99
2018-02-11T01:56:25.433Z,99.99
2018-02-11T01:56:26.033Z,99.99
2018-02-11T01:56:26.631Z,99.99
2018-02-11T01:57:21.136Z,99.99
2018-02-11T01:57:21.706Z,99.99
2018-02-11T01:57:22.305Z,99.99
2018-02-11T01:57:22.908Z,99.99
2018-02-11T01:57:23.505Z,99.99
2018-02-11T01:57:24.104Z,99.99
2018-02-11T01:57:24.704Z,99.99
2018-02-11T01:57:25.303Z,99.99
2018-02-11T01:58:18.786Z,99.99
2018-02-11T01:58:19.358Z,99.99
2018-02-11T01:58:19.957Z,99.99
2018-02-11T01:58:20.593Z,99.99
2018-02-11T01:58:21.158Z,99.99
2018-02-11T01:58:21.756Z,99.99
2018-02-11T01:58:22.356Z,99.99
2018-02-11T01:58:22.959Z,99.99
2018-02-11T01:59:16.440Z,99.99
2018-02-11T01:59:17.009Z,99.99
2018-02-11T01:59:17.613Z,99.99
2018-02-11T01:59:18.213Z,99.99
2018-02-11T01:59:18.808Z,99.99
2018-02-11T01:59:19.408Z,99.99
2018-02-11T01:59:20.008Z,99.99
2018-02-11T01:59:20.609Z,99.99
2018-02-11T02:00:14.090Z,99.99
2018-02-11T02:00:14.661Z,99.99
2018-02-11T02:00:15.262Z,99.99
2018-02-11T02:00:15.860Z,99.99
2018-02-11T02:00:16.459Z,99.99
2018-02-11T02:00:17.061Z,99.99
2018-02-11T02:00:17.661Z,99.99
2018-02-11T02:00:18.261Z,99.99
2018-02-11T02:01:11.743Z,99.99
2018-02-11T02:01:12.318Z,99.99
2018-02-11T02:01:12.912Z,99.99
2018-02-11T02:01:13.512Z,99.99
2018-02-11T02:01:14.113Z,99.99
2018-02-11T02:01:14.713Z,99.99
2018-02-11T02:01:15.312Z,99.99
2018-02-11T02:01:15.915Z,99.99
2018-02-11T02:02:10.419Z,99.99
2018-02-11T02:02:10.986Z,99.99
2018-02-11T02:02:11.587Z,99.99
2018-02-11T02:02:12.188Z,99.99
2018-02-11T02:02:12.786Z,99.99
2018-02-11T02:02:13.387Z,99.99
2018-02-11T02:02:13.986Z,99.99
2018-02-11T02:02:14.586Z,99.99
2018-02-11T02:03:08.069Z,99.99
2018-02-11T02:03:08.640Z,99.99
2018-02-11T02:03:09.241Z,99.99
2018-02-11T02:03:09.839Z,99.99
2018-02-11T02:03:10.439Z,99.99
2018-02-11T02:03:11.039Z,99.99
2018-02-11T02:03:11.645Z,99.99
2018-02-11T02:03:12.239Z,99.99
2018-02-11T02:04:05.742Z,99.99
2018-02-11T02:04:06.291Z,99.99
2018-02-11T02:04:06.891Z,99.99
2018-02-11T02:04:07.491Z,99.99
2018-02-11T02:04:08.091Z,99.99
2018-02-11T02:04:08.691Z,99.99
2018-02-11T02:04:09.290Z,99.99
2018-02-11T02:04:09.893Z,99.99
2018-02-11T02:05:03.374Z,99.99
2018-02-11T02:05:03.944Z,99.99
2018-02-11T02:05:04.544Z,99.99
2018-02-11T02:05:05.176Z,99.99
2018-02-11T02:05:05.743Z,99.99
2018-02-11T02:05:06.343Z,99.99
2018-02-11T02:05:06.941Z,99.99
2018-02-11T02:05:07.545Z,99.99
2018-02-11T02:06:01.032Z,99.99
2018-02-11T02:06:01.594Z,99.99
2018-02-11T02:06:02.194Z,99.99
2018-02-11T02:06:02.795Z,99.99
2018-02-11T02:06:03.394Z,99.99
2018-02-11T02:06:03.995Z,99.99
2018-02-11T02:06:04.595Z,99.99
2018-02-11T02:06:05.193Z,99.99
2018-02-11T02:06:59.700Z,99.99
2018-02-11T02:07:00.271Z,99.99
2018-02-11T02:07:00.870Z,99.99
2018-02-11T02:07:01.469Z,99.99
2018-02-11T02:07:02.068Z,99.99
2018-02-11T02:07:02.670Z,99.99
2018-02-11T02:07:03.269Z,99.99
2018-02-11T02:07:03.873Z,99.99
2018-02-11T02:07:58.376Z,99.99
2018-02-11T02:07:58.946Z,99.99
2018-02-11T02:07:59.545Z,99.99
2018-02-11T02:08:00.145Z,99.99
2018-02-11T02:08:00.745Z,99.99
2018-02-11T02:08:01.345Z,99.99
2018-02-11T02:08:01.949Z,99.99
2018-02-11T02:08:02.545Z,99.99
2018-02-11T02:08:57.051Z,99.99
2018-02-11T02:08:57.622Z,99.99
2018-02-11T02:08:58.222Z,99.99
2018-02-11T02:08:58.820Z,99.99
2018-02-11T02:08:59.420Z,99.99
2018-02-11T02:09:00.023Z,99.99
2018-02-11T02:09:00.620Z,99.99
2018-02-11T02:09:01.220Z,99.99
2018-02-11T02:09:54.704Z,99.99
2018-02-11T02:09:55.274Z,99.99
2018-02-11T02:09:55.873Z,99.99
2018-02-11T02:09:56.473Z,99.99
2018-02-11T02:09:57.075Z,99.99
2018-02-11T02:09:57.672Z,99.99
2018-02-11T02:09:58.272Z,99.99
2018-02-11T02:09:58.875Z,99.99
2018-02-11T02:10:52.357Z,99.99
2018-02-11T02:10:52.924Z,99.99
2018-02-11T02:10:53.526Z,99.99
2018-02-11T02:10:54.124Z,99.99
2018-02-11T02:10:54.724Z,99.99
2018-02-11T02:10:55.324Z,99.99
2018-02-11T02:10:55.925Z,99.99
2018-02-11T02:10:56.526Z,99.99
2018-02-11T02:11:51.030Z,99.99
2018-02-11T02:11:51.604Z,99.99
2018-02-11T02:11:52.201Z,99.99
2018-02-11T02:11:52.799Z,99.99
2018-02-11T02:11:53.398Z,99.99
2018-02-11T02:11:53.999Z,99.99
2018-02-11T02:11:54.600Z,99.99
2018-02-11T02:11:55.199Z,99.99
2018-02-11T02:12:49.706Z,99.99
2018-02-11T02:12:50.280Z,99.99
2018-02-11T02:12:50.877Z,99.99
2018-02-11T02:12:51.476Z,99.99
2018-02-11T02:12:52.076Z,99.99
2018-02-11T02:12:52.675Z,99.99
2018-02-11T02:12:53.275Z,99.99
2018-02-11T02:12:53.878Z,99.99
2018-02-11T02:13:47.359Z,99.99
2018-02-11T02:13:47.928Z,99.99
2018-02-11T02:13:48.530Z,99.99
2018-02-11T02:13:49.128Z,99.99
2018-02-11T02:13:49.729Z,99.99
2018-02-11T02:13:50.328Z,99.99
2018-02-11T02:13:50.928Z,99.99
2018-02-11T02:13:51.534Z,99.99
2018-02-11T02:14:45.010Z,99.99
2018-02-11T02:14:45.581Z,99.99
2018-02-11T02:14:46.180Z,99.99
2018-02-11T02:14:46.790Z,99.99
2018-02-11T02:14:47.379Z,99.99
2018-02-11T02:14:47.981Z,99.99
2018-02-11T02:14:48.579Z,99.99
2018-02-11T02:14:49.186Z,99.99
2018-02-11T02:15:43.685Z,99.99
2018-02-11T02:15:44.256Z,99.99
2018-02-11T02:15:44.855Z,99.99
2018-02-11T02:15:45.455Z,99.99
2018-02-11T02:15:46.055Z,99.99
2018-02-11T02:15:46.654Z,99.99
2018-02-11T02:15:47.258Z,99.99
2018-02-11T02:15:47.855Z,99.99
2018-02-11T02:16:42.361Z,99.99
2018-02-11T02:16:42.932Z,99.99
2018-02-11T02:16:43.530Z,99.99
2018-02-11T02:16:44.128Z,99.99
2018-02-11T02:16:44.731Z,99.99
2018-02-11T02:16:45.330Z,99.99
2018-02-11T02:16:45.965Z,99.99
2018-02-11T02:16:46.528Z,99.99
2018-02-11T02:17:41.038Z,99.99
2018-02-11T02:17:41.607Z,99.99
2018-02-11T02:17:42.205Z,99.99
2018-02-11T02:17:42.807Z,99.99
2018-02-11T02:17:43.405Z,99.99
2018-02-11T02:17:44.007Z,99.99
2018-02-11T02:17:44.605Z,99.99
2018-02-11T02:17:45.211Z,99.99
2018-02-11T02:18:39.713Z,99.99
2018-02-11T02:18:40.283Z,99.99
2018-02-11T02:18:40.882Z,99.99
2018-02-11T02:18:41.482Z,99.99
2018-02-11T02:18:42.082Z,99.99
2018-02-11T02:18:42.682Z,99.99
2018-02-11T02:18:43.281Z,99.99
2018-02-11T02:18:43.880Z,99.99
2018-02-11T02:19:38.401Z,99.99
2018-02-11T02:19:38.957Z,99.99
2018-02-11T02:19:39.559Z,99.99
2018-02-11T02:19:40.157Z,99.99
2018-02-11T02:19:40.758Z,99.99
2018-02-11T02:19:41.358Z,99.99
2018-02-11T02:19:41.955Z,99.99
2018-02-11T02:19:42.572Z,99.99
2018-02-11T02:20:36.043Z,99.99
2018-02-11T02:20:36.610Z,99.99
2018-02-11T02:20:37.212Z,99.99
2018-02-11T02:20:37.810Z,99.99
2018-02-11T02:20:38.409Z,99.99
2018-02-11T02:20:39.010Z,99.99
2018-02-11T02:20:39.610Z,99.99
2018-02-11T02:20:40.210Z,99.99
2018-02-11T02:21:34.714Z,99.99
2018-02-11T02:21:35.286Z,99.99
2018-02-11T02:21:35.885Z,99.99
2018-02-11T02:21:36.486Z,99.99
2018-02-11T02:21:37.084Z,99.99
2018-02-11T02:21:37.684Z,99.99
2018-02-11T02:21:38.283Z,99.99
2018-02-11T02:21:38.885Z,99.99
2018-02-11T02:22:33.392Z,99.99
2018-02-11T02:22:33.961Z,99.99
2018-02-11T02:22:34.563Z,99.99
2018-02-11T02:22:35.161Z,99.99
2018-02-11T02:22:35.764Z,99.99
2018-02-11T02:22:36.360Z,99.99
2018-02-11T02:22:36.960Z,99.99
2018-02-11T02:22:37.559Z,99.99
2018-02-11T02:23:32.066Z,99.99
2018-02-11T02:23:32.638Z,99.99
2018-02-11T02:23:33.236Z,99.99
2018-02-11T02:23:33.835Z,99.99
2018-02-11T02:23:34.438Z,99.99
2018-02-11T02:23:35.036Z,99.99
2018-02-11T02:23:35.635Z,99.99
2018-02-11T02:23:36.235Z,99.99
2018-02-11T02:24:29.718Z,99.99
2018-02-11T02:24:30.288Z,99.99
2018-02-11T02:24:30.899Z,99.99
2018-02-11T02:24:31.487Z,99.99
2018-02-11T02:24:32.088Z,99.99
2018-02-11T02:24:32.686Z,99.99
2018-02-11T02:24:33.287Z,99.99
2018-02-11T02:24:33.888Z,99.99
2018-02-11T02:25:27.370Z,99.99
2018-02-11T02:25:27.940Z,99.99
2018-02-11T02:25:28.541Z,99.99
2018-02-11T02:25:29.140Z,99.99
2018-02-11T02:25:29.748Z,99.99
2018-02-11T02:25:30.339Z,99.99
2018-02-11T02:25:30.938Z,99.99
2018-02-11T02:25:31.539Z,99.99
2018-02-11T02:26:36.695Z,99.99
2018-02-11T02:26:37.266Z,99.99
2018-02-11T02:26:37.867Z,99.99
2018-02-11T02:26:38.467Z,99.99
2018-02-11T02:26:39.066Z,99.99
2018-02-11T02:26:39.675Z,99.99
2018-02-11T02:26:40.266Z,99.99
2018-02-11T02:26:40.865Z,99.99
2018-02-11T02:27:34.349Z,99.99
2018-02-11T02:27:34.917Z,99.99
2018-02-11T02:27:35.517Z,99.99
2018-02-11T02:27:36.117Z,99.99
2018-02-11T02:27:36.725Z,99.99
2018-02-11T02:27:37.318Z,99.99
2018-02-11T02:27:37.917Z,99.99
2018-02-11T02:27:38.517Z,99.99
2018-02-11T02:28:33.022Z,99.99
2018-02-11T02:28:33.592Z,99.99
2018-02-11T02:28:34.192Z,99.99
2018-02-11T02:28:34.793Z,99.99
2018-02-11T02:28:35.391Z,99.99
2018-02-11T02:28:35.992Z,99.99
2018-02-11T02:28:36.590Z,99.99
2018-02-11T02:28:37.192Z,99.99
2018-02-11T02:29:31.708Z,99.99
2018-02-11T02:29:32.268Z,99.99
2018-02-11T02:29:32.869Z,99.99
2018-02-11T02:29:33.469Z,99.99
2018-02-11T02:29:34.067Z,99.99
2018-02-11T02:29:34.667Z,99.99
2018-02-11T02:29:35.268Z,99.99
2018-02-11T02:29:35.868Z,99.99
2018-02-11T02:30:30.375Z,99.99
2018-02-11T02:30:30.944Z,99.99
2018-02-11T02:30:31.544Z,99.99
2018-02-11T02:30:32.144Z,99.99
2018-02-11T02:30:32.743Z,99.99
2018-02-11T02:30:33.343Z,99.99
2018-02-11T02:30:33.949Z,99.99
2018-02-11T02:30:34.543Z,99.99
2018-02-11T02:31:29.050Z,99.99
2018-02-11T02:31:29.619Z,99.99
2018-02-11T02:31:30.220Z,99.99
2018-02-11T02:31:30.819Z,99.99
2018-02-11T02:31:31.423Z,99.99
2018-02-11T02:31:32.020Z,99.99
2018-02-11T02:31:32.619Z,99.99
2018-02-11T02:31:33.219Z,99.99
2018-02-11T02:32:27.727Z,99.99
2018-02-11T02:32:28.299Z,99.99
2018-02-11T02:32:28.903Z,99.99
2018-02-11T02:32:29.496Z,99.99
2018-02-11T02:32:30.096Z,99.99
2018-02-11T02:32:30.694Z,99.99
2018-02-11T02:32:31.295Z,99.99
2018-02-11T02:32:31.895Z,99.99
2018-02-11T02:33:25.377Z,99.99
2018-02-11T02:33:25.948Z,99.99
2018-02-11T02:33:26.553Z,99.99
2018-02-11T02:33:27.149Z,99.99
2018-02-11T02:33:27.751Z,99.99
2018-02-11T02:33:28.348Z,99.99
2018-02-11T02:33:28.946Z,99.99
2018-02-11T02:33:29.547Z,99.99
2018-02-11T02:34:24.054Z,99.99
2018-02-11T02:34:24.625Z,99.99
2018-02-11T02:34:25.223Z,99.99
2018-02-11T02:34:25.824Z,99.99
2018-02-11T02:34:26.421Z,99.99
2018-02-11T02:34:27.024Z,99.99
2018-02-11T02:34:27.621Z,99.99
2018-02-11T02:34:28.221Z,99.99
2018-02-11T02:35:21.706Z,99.99
2018-02-11T02:35:22.275Z,99.99
2018-02-11T02:35:22.877Z,99.99
2018-02-11T02:35:23.476Z,99.99
2018-02-11T02:35:24.077Z,99.99
2018-02-11T02:35:24.675Z,99.99
2018-02-11T02:35:25.273Z,99.99
2018-02-11T02:35:25.874Z,99.99
2018-02-11T02:53:44.471Z,99.99
2018-02-11T02:53:45.024Z,99.99
2018-02-11T02:53:45.623Z,99.99
2018-02-11T02:53:46.223Z,99.99
2018-02-11T02:53:46.824Z,99.99
2018-02-11T02:53:47.424Z,99.99
2018-02-11T02:53:48.023Z,99.99
2018-02-11T02:53:48.623Z,99.99
2018-02-11T02:54:42.107Z,99.99
2018-02-11T02:54:42.679Z,99.99
2018-02-11T02:54:43.275Z,99.99
2018-02-11T02:54:43.875Z,99.99
2018-02-11T02:54:44.474Z,99.99
2018-02-11T02:54:45.075Z,99.99
2018-02-11T02:54:45.675Z,99.99
2018-02-11T02:54:46.277Z,99.99
2018-02-11T02:55:39.759Z,99.99
2018-02-11T02:55:40.329Z,99.99
2018-02-11T02:55:40.930Z,99.99
2018-02-11T02:55:41.534Z,99.99
2018-02-11T02:55:42.128Z,99.99
2018-02-11T02:55:42.729Z,99.99
2018-02-11T02:55:43.327Z,99.99
2018-02-11T02:55:43.929Z,99.99
2018-02-11T02:56:37.414Z,99.99
2018-02-11T02:56:37.981Z,99.99
2018-02-11T02:56:38.579Z,99.99
2018-02-11T02:56:39.207Z,99.99
2018-02-11T02:56:39.783Z,99.99
2018-02-11T02:56:40.382Z,99.99
2018-02-11T02:56:40.979Z,99.99
2018-02-11T02:56:41.580Z,99.99
2018-02-11T02:57:36.086Z,99.99
2018-02-11T02:57:36.656Z,99.99
2018-02-11T02:57:37.256Z,99.99
2018-02-11T02:57:37.855Z,99.99
2018-02-11T02:57:38.456Z,99.99
2018-02-11T02:57:39.055Z,99.99
2018-02-11T02:57:39.655Z,99.99
2018-02-11T02:57:40.255Z,99.99
2018-02-11T02:58:33.740Z,99.99
2018-02-11T02:58:34.310Z,99.99
2018-02-11T02:58:34.909Z,99.99
2018-02-11T02:58:35.509Z,99.99
2018-02-11T02:58:36.109Z,99.99
2018-02-11T02:58:36.710Z,99.99
2018-02-11T02:58:37.308Z,99.99
2018-02-11T02:58:37.914Z,99.99
2018-02-11T02:59:31.389Z,99.99
2018-02-11T02:59:31.960Z,99.99
2018-02-11T02:59:32.561Z,99.99
2018-02-11T02:59:33.160Z,99.99
2018-02-11T02:59:33.760Z,99.99
2018-02-11T02:59:34.366Z,99.99
2018-02-11T02:59:34.959Z,99.99
2018-02-11T02:59:35.562Z,99.99
2018-02-11T03:00:29.050Z,99.99
2018-02-11T03:00:29.614Z,99.99
2018-02-11T03:00:30.211Z,99.99
2018-02-11T03:00:30.812Z,99.99
2018-02-11T03:00:31.413Z,99.99
2018-02-11T03:00:32.010Z,99.99
2018-02-11T03:00:32.610Z,99.99
2018-02-11T03:00:33.211Z,99.99
2018-02-11T03:01:26.697Z,99.99
2018-02-11T03:01:27.265Z,99.99
2018-02-11T03:01:27.867Z,99.99
2018-02-11T03:01:28.468Z,99.99
2018-02-11T03:01:29.062Z,99.99
2018-02-11T03:01:29.666Z,99.99
2018-02-11T03:01:30.263Z,99.99
2018-02-11T03:01:30.865Z,99.99
2018-02-11T03:02:25.370Z,99.99
2018-02-11T03:02:25.940Z,99.99
2018-02-11T03:02:26.539Z,99.99
2018-02-11T03:02:27.138Z,99.99
2018-02-11T03:02:27.740Z,99.99
2018-02-11T03:02:28.337Z,99.99
2018-02-11T03:02:28.938Z,99.99
2018-02-11T03:02:29.542Z,99.99
2018-02-11T03:03:23.024Z,99.99
2018-02-11T03:03:23.591Z,99.99
2018-02-11T03:03:24.191Z,99.99
2018-02-11T03:03:24.791Z,99.99
2018-02-11T03:03:25.392Z,99.99
2018-02-11T03:03:25.994Z,99.99
2018-02-11T03:03:26.591Z,99.99
2018-02-11T03:03:27.195Z,99.99
2018-02-11T03:04:21.697Z,99.99
2018-02-11T03:04:22.267Z,99.99
2018-02-11T03:04:22.867Z,99.99
2018-02-11T03:04:23.471Z,99.99
2018-02-11T03:04:24.066Z,99.99
2018-02-11T03:04:24.667Z,99.99
2018-02-11T03:04:25.267Z,99.99
2018-02-11T03:04:25.867Z,99.99
2018-02-11T03:05:19.351Z,99.99
2018-02-11T03:05:19.920Z,99.99
2018-02-11T03:05:20.519Z,99.99
2018-02-11T03:05:21.120Z,99.99
2018-02-11T03:05:21.719Z,99.99
2018-02-11T03:05:22.319Z,99.99
2018-02-11T03:05:22.917Z,99.99
2018-02-11T03:05:23.518Z,99.99
2018-02-11T03:06:18.026Z,99.99
2018-02-11T03:06:18.594Z,99.99
2018-02-11T03:06:19.196Z,99.99
2018-02-11T03:06:19.793Z,99.99
2018-02-11T03:06:20.398Z,99.99
2018-02-11T03:06:20.995Z,99.99
2018-02-11T03:06:21.594Z,99.99
2018-02-11T03:06:22.193Z,99.99
2018-02-11T03:07:15.677Z,99.99
2018-02-11T03:07:16.248Z,99.99
2018-02-11T03:07:16.847Z,99.99
2018-02-11T03:07:17.447Z,99.99
2018-02-11T03:07:18.046Z,99.99
2018-02-11T03:07:18.646Z,99.99
2018-02-11T03:07:19.246Z,99.99
2018-02-11T03:07:19.845Z,99.99
2018-02-11T03:08:18.419Z,99.99
2018-02-11T04:08:08.002Z,78.31
2018-02-11T04:08:08.569Z,78.41
2018-02-11T04:08:09.167Z,78.41
2018-02-11T04:08:09.769Z,78.59
2018-02-11T04:08:10.370Z,78.59
2018-02-11T04:08:10.972Z,78.69
2018-02-11T04:08:11.567Z,78.31
2018-02-11T04:08:12.166Z,78.59
2018-02-11T04:09:06.683Z,78.41
2018-02-11T04:09:07.245Z,78.41
2018-02-11T04:09:07.844Z,78.59
2018-02-11T04:09:08.447Z,78.59
2018-02-11T04:09:09.046Z,78.41
2018-02-11T04:09:09.643Z,78.50
2018-02-11T04:09:10.244Z,78.59
2018-02-11T04:09:10.844Z,78.41
2018-02-11T04:10:05.349Z,77.08
2018-02-11T04:10:05.922Z,77.37
2018-02-11T04:10:06.523Z,77.37
2018-02-11T04:10:07.120Z,77.27
2018-02-11T04:10:07.722Z,77.18
2018-02-11T04:10:08.322Z,77.56
2018-02-11T04:10:08.919Z,77.46
2018-02-11T04:10:09.519Z,77.46
2018-02-11T04:11:04.026Z,77.56
2018-02-11T04:11:04.597Z,76.89
2018-02-11T04:11:05.197Z,77.56
2018-02-11T04:11:05.797Z,76.80
2018-02-11T04:11:06.396Z,76.99
2018-02-11T04:11:06.995Z,76.80
2018-02-11T04:11:07.596Z,77.08
2018-02-11T04:11:08.198Z,76.99
2018-02-11T04:12:02.702Z,75.57
2018-02-11T04:12:03.274Z,75.85
2018-02-11T04:12:03.872Z,75.95
2018-02-11T04:12:04.472Z,75.85
2018-02-11T04:12:05.071Z,75.76
2018-02-11T04:12:05.673Z,75.85
2018-02-11T04:12:06.284Z,75.57
2018-02-11T04:12:06.870Z,75.85
2018-02-11T04:13:00.353Z,75.95
2018-02-11T04:13:00.926Z,75.38
2018-02-11T04:13:01.526Z,75.47
2018-02-11T04:13:02.125Z,75.47
2018-02-11T04:13:02.726Z,75.47
2018-02-11T04:13:03.324Z,75.95
2018-02-11T04:13:03.928Z,75.47
2018-02-11T04:13:04.529Z,75.28
2018-02-11T04:13:59.030Z,75.47
2018-02-11T04:13:59.602Z,75.47
2018-02-11T04:14:00.200Z,75.38
2018-02-11T04:14:00.800Z,75.76
2018-02-11T04:14:01.402Z,75.76
2018-02-11T04:14:02.001Z,75.76
2018-02-11T04:14:02.603Z,75.47
2018-02-11T04:14:03.199Z,75.76
2018-02-11T04:14:57.705Z,74.81
2018-02-11T04:14:58.277Z,74.90
2018-02-11T04:14:58.876Z,75.00
2018-02-11T04:14:59.477Z,74.90
2018-02-11T04:15:00.077Z,74.81
2018-02-11T04:15:00.676Z,75.00
2018-02-11T04:15:01.276Z,74.81
2018-02-11T04:15:01.877Z,74.81
2018-02-11T04:15:56.381Z,74.71
2018-02-11T04:15:56.954Z,74.15
2018-02-11T04:15:57.554Z,74.33
2018-02-11T04:15:58.153Z,74.24
2018-02-11T04:15:58.754Z,74.24
2018-02-11T04:15:59.353Z,74.52
2018-02-11T04:15:59.952Z,74.52
2018-02-11T04:16:00.552Z,74.52
2018-02-11T04:16:54.033Z,74.71
2018-02-11T04:16:54.605Z,74.33
2018-02-11T04:16:55.207Z,74.43
2018-02-11T04:16:55.806Z,74.52
2018-02-11T04:16:56.407Z,74.33
2018-02-11T04:16:57.043Z,74.52
2018-02-11T04:16:57.605Z,74.62
2018-02-11T04:16:58.205Z,74.24
2018-02-11T04:17:52.710Z,74.81
2018-02-11T04:17:53.280Z,74.81
2018-02-11T04:17:53.881Z,74.62
2018-02-11T04:17:54.481Z,74.81
2018-02-11T04:17:55.082Z,74.81
2018-02-11T04:17:55.679Z,74.62
2018-02-11T04:17:56.280Z,74.81
2018-02-11T04:17:56.882Z,74.71
2018-02-11T04:18:50.362Z,74.52
2018-02-11T04:18:50.933Z,74.33
2018-02-11T04:18:51.545Z,74.33
2018-02-11T04:18:52.133Z,74.52
2018-02-11T04:18:52.732Z,74.33
2018-02-11T04:18:53.334Z,74.62
2018-02-11T04:18:53.932Z,74.52
2018-02-11T04:18:54.532Z,74.71
2018-02-11T04:19:48.013Z,74.43
2018-02-11T04:19:48.585Z,74.33
2018-02-11T04:19:49.185Z,74.43
2018-02-11T04:19:49.784Z,74.90
2018-02-11T04:19:50.392Z,74.52
2018-02-11T04:19:50.984Z,74.90
2018-02-11T04:19:51.585Z,74.90
2018-02-11T04:19:52.185Z,74.71
2018-02-11T04:20:46.689Z,74.81
2018-02-11T04:20:47.260Z,74.33
2018-02-11T04:20:47.861Z,74.33
2018-02-11T04:20:48.460Z,74.43
2018-02-11T04:20:49.060Z,75.00
2018-02-11T04:20:49.665Z,74.62
2018-02-11T04:20:50.259Z,74.43
2018-02-11T04:20:50.859Z,74.90
2018-02-11T04:21:45.364Z,74.05
2018-02-11T04:21:45.935Z,74.24
2018-02-11T04:21:46.536Z,74.15
2018-02-11T04:21:47.135Z,74.62
2018-02-11T04:21:47.736Z,74.71
2018-02-11T04:21:48.335Z,74.05
2018-02-11T04:21:48.935Z,74.33
2018-02-11T04:21:49.534Z,74.15
2018-02-11T04:22:43.015Z,74.43
2018-02-11T04:22:43.587Z,74.33
2018-02-11T04:22:44.188Z,74.52
2018-02-11T04:22:44.787Z,74.33
2018-02-11T04:22:45.387Z,74.90
2018-02-11T04:22:45.987Z,74.81
2018-02-11T04:22:46.590Z,74.52
2018-02-11T04:22:47.226Z,74.52
2018-02-11T04:23:41.755Z,74.81
2018-02-11T04:23:42.263Z,74.90
2018-02-11T04:23:42.863Z,74.81
2018-02-11T04:23:43.461Z,74.90
2018-02-11T04:23:44.062Z,74.90
2018-02-11T04:23:44.663Z,74.52
2018-02-11T04:23:45.262Z,74.90
2018-02-11T04:23:45.860Z,74.90
2018-02-11T04:24:39.342Z,75.09
2018-02-11T04:24:39.916Z,75.28
2018-02-11T04:24:40.515Z,75.47
2018-02-11T04:24:41.116Z,75.66
2018-02-11T04:24:41.716Z,75.57
2018-02-11T04:24:42.318Z,75.28
2018-02-11T04:24:42.915Z,75.38
2018-02-11T04:24:43.514Z,75.38
2018-02-11T04:25:38.018Z,75.66
2018-02-11T04:25:38.591Z,75.47
2018-02-11T04:25:39.190Z,76.04
2018-02-11T04:25:39.791Z,76.23
2018-02-11T04:25:40.391Z,76.32
2018-02-11T04:25:40.991Z,75.38
2018-02-11T04:25:41.592Z,75.85
2018-02-11T04:25:42.188Z,75.57
2018-02-11T04:26:36.693Z,75.66
2018-02-11T04:26:37.266Z,75.76
2018-02-11T04:26:37.866Z,75.66
2018-02-11T04:26:38.465Z,75.66
2018-02-11T04:26:39.067Z,75.85
2018-02-11T04:26:39.666Z,75.76
2018-02-11T04:26:40.266Z,75.95
2018-02-11T04:26:40.865Z,75.95
2018-02-11T04:27:35.371Z,75.66
2018-02-11T04:27:35.943Z,75.76
2018-02-11T04:27:36.545Z,75.85
2018-02-11T04:27:37.143Z,75.66
2018-02-11T04:27:37.742Z,75.66
2018-02-11T04:27:38.341Z,75.66
2018-02-11T04:27:38.943Z,75.76
2018-02-11T04:27:39.541Z,75.66
2018-02-11T04:28:33.029Z,75.85
2018-02-11T04:28:33.595Z,75.76
2018-02-11T04:28:34.194Z,75.76
2018-02-11T04:28:34.795Z,75.76
2018-02-11T04:28:35.394Z,75.76
2018-02-11T04:28:35.996Z,75.47
2018-02-11T04:28:36.597Z,75.76
2018-02-11T04:28:37.194Z,75.57
2018-02-11T04:29:31.697Z,75.57
2018-02-11T04:29:32.269Z,75.66
2018-02-11T04:29:32.870Z,75.57
2018-02-11T04:29:33.468Z,75.76